Time;durP1;ratioP1;P1;durP2;ratioP2;P2;SDS_P1;SDS_P2;PMS_P1;PMS_P2;Temp;Humidity;BMP_temperature;BMP_pressure;BME280_temperature;BME280_humidity;BME280_pressure;Samples;Min_cycle;Max_cycle;Signal;HPM_P1;HPM_P2
2021/10/02 00:46:34;;;;;;;3.20;0.75;;;19.80;55.80;;;;;;5134131;27;20070;-59
2021/10/02 00:49:00;;;;;;;1.73;0.80;;;19.80;55.80;;;;;;5134117;27;20059;-60
2021/10/02 00:51:27;;;;;;;2.97;1.10;;;19.80;55.80;;;;;;5134285;27;20441;-60
2021/10/02 00:53:52;;;;;;;1.52;0.50;;;19.80;55.90;;;;;;5134262;27;20046;-60
2021/10/02 00:56:18;;;;;;;2.28;0.90;;;19.80;55.90;;;;;;5134001;28;20410;-60
2021/10/02 00:58:47;;;;;;;2.90;0.90;;;19.70;55.90;;;;;;5134051;28;20029;-61
2021/10/02 01:01:26;;;;;;;2.70;0.75;;;19.80;56.00;;;;;;5133935;28;20023;-59
2021/10/02 01:04:15;;;;;;;1.95;0.82;;;19.70;56.00;;;;;;5134054;28;20027;-60
2021/10/02 01:07:12;;;;;;;0.88;0.50;;;19.70;56.00;;;;;;5133719;28;20122;-60
2021/10/02 01:10:12;;;;;;;2.20;0.77;;;19.70;56.00;;;;;;5133860;28;20019;-61
2021/10/02 01:13:15;;;;;;;4.50;1.13;;;19.70;56.00;;;;;;5133925;28;20429;-60
2021/10/02 01:16:08;;;;;;;2.10;0.63;;;19.70;56.00;;;;;;5048996;28;20027;-60
2021/10/02 01:18:54;;;;;;;1.95;0.75;;;19.70;56.10;;;;;;5133885;28;20050;-61
2021/10/02 01:21:34;;;;;;;2.38;0.80;;;19.70;56.10;;;;;;5133716;28;20377;-61
2021/10/02 01:24:41;;;;;;;1.80;0.90;;;19.70;56.10;;;;;;5133868;28;20073;-60
2021/10/02 01:27:33;;;;;;;2.30;0.70;;;19.70;56.10;;;;;;5133000;28;20042;-61
2021/10/02 01:30:10;;;;;;;2.47;0.63;;;19.70;56.20;;;;;;5133742;28;20026;-59
2021/10/02 01:32:51;;;;;;;2.53;0.90;;;19.70;56.20;;;;;;5133660;28;20031;-60
2021/10/02 01:35:29;;;;;;;2.22;0.80;;;19.70;56.20;;;;;;5133651;28;20098;-61
2021/10/02 01:47:08;;;;;;;2.17;0.80;;;19.70;56.20;;;;;;5133699;28;20471;-60
2021/10/02 01:49:03;;;;;;;4.55;0.90;;;19.60;56.30;;;;;;5137611;27;20045;-59
2021/10/02 01:51:29;;;;;;;2.70;0.70;;;19.60;56.30;;;;;;5137431;27;20526;-59
2021/10/02 01:53:56;;;;;;;2.38;0.90;;;19.70;56.30;;;;;;5119748;27;20035;-60
2021/10/02 01:56:23;;;;;;;2.40;0.70;;;19.60;56.40;;;;;;5137617;27;20031;-59
2021/10/02 01:58:50;;;;;;;1.77;0.60;;;19.60;56.40;;;;;;5137186;27;20015;-60
2021/10/02 02:01:17;;;;;;;2.22;0.82;;;19.60;56.40;;;;;;5137112;27;20155;-61
2021/10/02 02:03:44;;;;;;;2.17;0.60;;;19.60;56.40;;;;;;5137150;27;20022;-60
2021/10/02 02:06:11;;;;;;;1.88;0.82;;;19.60;56.40;;;;;;5137039;27;20027;-59
2021/10/02 02:08:40;;;;;;;2.38;0.80;;;19.60;56.40;;;;;;5136940;27;20023;-59
2021/10/02 02:11:07;;;;;;;1.55;0.75;;;19.60;56.50;;;;;;5136973;27;20568;-60
2021/10/02 02:13:36;;;;;;;1.45;0.63;;;19.60;56.50;;;;;;5136925;27;20040;-60
2021/10/02 02:16:02;;;;;;;2.85;0.80;;;19.60;56.50;;;;;;5137166;27;20058;-60
2021/10/02 02:18:29;;;;;;;2.58;0.77;;;19.60;56.50;;;;;;5136820;27;20026;-60
2021/10/02 02:20:57;;;;;;;2.28;0.75;;;19.60;56.50;;;;;;5136997;27;20121;-60
2021/10/02 02:23:25;;;;;;;1.88;0.80;;;19.60;56.50;;;;;;5137024;27;20016;-59
2021/10/02 02:25:52;;;;;;;1.08;0.55;;;19.60;56.50;;;;;;5136817;27;20050;-61
2021/10/02 02:28:19;;;;;;;2.97;0.52;;;19.50;56.50;;;;;;5136809;27;20050;-60
2021/10/02 02:30:45;;;;;;;1.20;0.68;;;19.60;56.60;;;;;;5136581;27;20031;-59
2021/10/02 02:33:11;;;;;;;1.88;0.93;;;19.60;56.60;;;;;;5136523;27;20026;-59
2021/10/02 02:35:36;;;;;;;1.38;0.70;;;19.50;56.60;;;;;;5136751;27;20046;-60
2021/10/02 02:38:02;;;;;;;2.28;0.82;;;19.50;56.60;;;;;;5136721;27;20023;-60
2021/10/02 02:40:28;;;;;;;1.30;0.50;;;19.50;56.60;;;;;;5136273;27;20100;-59
2021/10/02 02:42:54;;;;;;;3.20;1.13;;;19.50;56.60;;;;;;5136506;27;20027;-59
2021/10/02 02:45:21;;;;;;;2.92;0.80;;;19.50;56.60;;;;;;5136463;27;20026;-60
2021/10/02 02:48:06;;;;;;;1.77;0.80;;;19.50;56.70;;;;;;5136313;27;20027;-65
2021/10/02 02:50:52;;;;;;;3.40;1.13;;;19.50;56.70;;;;;;5136453;27;20019;-60
2021/10/02 02:53:52;;;;;;;1.60;0.80;;;19.50;56.70;;;;;;5136165;27;20019;-60
2021/10/02 02:56:32;;;;;;;1.92;0.73;;;19.50;56.70;;;;;;5135388;27;20424;-59
2021/10/02 02:59:07;;;;;;;2.53;0.70;;;19.50;56.70;;;;;;5136282;27;20023;-60
2021/10/02 03:01:38;;;;;;;1.92;0.80;;;19.50;56.70;;;;;;5136054;27;20574;-60
2021/10/02 03:04:05;;;;;;;2.63;0.95;;;19.50;56.80;;;;;;5117519;27;20035;-60
2021/10/02 03:06:32;;;;;;;1.42;0.60;;;19.50;56.80;;;;;;5135783;27;20035;-59
2021/10/02 03:08:59;;;;;;;2.55;1.00;;;19.50;56.80;;;;;;5135841;27;20030;-60
2021/10/02 03:11:26;;;;;;;1.42;0.45;;;19.50;56.80;;;;;;5135893;27;20019;-60
2021/10/02 03:13:55;;;;;;;1.65;0.63;;;19.50;56.90;;;;;;5136027;27;20024;-60
2021/10/02 03:16:24;;;;;;;2.63;0.82;;;19.50;56.80;;;;;;5135847;27;20019;-60
2021/10/02 03:18:54;;;;;;;1.42;0.60;;;19.50;56.90;;;;;;5135965;27;20106;-59
2021/10/02 03:21:22;;;;;;;1.75;0.70;;;19.50;56.90;;;;;;5135575;27;20027;-60
2021/10/02 03:23:49;;;;;;;1.55;0.60;;;19.50;56.80;;;;;;5135533;27;20478;-59
2021/10/02 03:26:15;;;;;;;0.95;0.50;;;19.50;56.90;;;;;;5135625;27;20074;-60
2021/10/02 03:28:42;;;;;;;2.53;0.77;;;19.50;56.90;;;;;;5135630;27;20401;-59
2021/10/02 03:31:08;;;;;;;1.27;0.60;;;19.50;56.90;;;;;;5135711;27;20023;-60
2021/10/02 03:33:35;;;;;;;1.35;0.68;;;19.50;56.90;;;;;;5117188;27;20023;-60
2021/10/02 03:36:01;;;;;;;1.92;0.80;;;19.50;57.00;;;;;;5135482;27;20031;-59
2021/10/02 03:38:26;;;;;;;1.67;0.75;;;19.50;57.00;;;;;;5135358;27;20366;-59
2021/10/02 03:40:58;;;;;;;2.50;0.80;;;19.50;57.00;;;;;;5135248;27;20031;-60
2021/10/02 03:43:34;;;;;;;2.13;0.90;;;19.50;57.00;;;;;;5135265;27;20030;-59
2021/10/02 03:46:00;;;;;;;2.00;0.85;;;19.40;57.00;;;;;;5135109;27;20031;-59
2021/10/02 03:48:27;;;;;;;2.08;0.60;;;19.50;57.00;;;;;;5135004;27;20030;-59
2021/10/02 03:50:52;;;;;;;1.80;0.88;;;19.50;57.00;;;;;;5134936;27;20023;-60
2021/10/02 03:53:18;;;;;;;1.67;0.70;;;19.50;57.00;;;;;;5134943;27;20034;-60
2021/10/02 03:55:44;;;;;;;1.40;0.65;;;19.50;57.10;;;;;;5134894;27;20037;-61
2021/10/02 03:58:10;;;;;;;1.50;0.60;;;19.50;57.10;;;;;;5134917;27;20027;-60
2021/10/02 04:00:35;;;;;;;1.33;0.50;;;19.50;57.10;;;;;;5134794;27;20121;-60
2021/10/02 04:03:01;;;;;;;1.10;0.60;;;19.50;57.10;;;;;;5134706;27;20046;-59
2021/10/02 04:05:26;;;;;;;1.58;0.60;;;19.40;57.10;;;;;;5134628;27;20094;-60
2021/10/02 04:07:52;;;;;;;1.90;0.73;;;19.40;57.10;;;;;;5134045;27;20394;-60
2021/10/02 04:10:17;;;;;;;2.25;1.08;;;19.40;57.10;;;;;;5134535;27;20058;-59
2021/10/02 04:12:43;;;;;;;1.73;0.70;;;19.40;57.20;;;;;;5134841;27;20049;-60
2021/10/02 04:15:09;;;;;;;1.80;0.82;;;19.40;57.20;;;;;;5134506;27;20493;-60
2021/10/02 04:17:36;;;;;;;2.08;0.80;;;19.40;57.20;;;;;;5134470;27;20023;-59
2021/10/02 04:20:04;;;;;;;1.20;0.50;;;19.40;57.20;;;;;;5134532;27;20015;-59
2021/10/02 04:22:30;;;;;;;1.15;0.60;;;19.40;57.30;;;;;;5115999;27;20096;-59
2021/10/02 04:24:55;;;;;;;1.67;0.70;;;19.40;57.30;;;;;;5134271;27;20058;-60
2021/10/02 04:27:21;;;;;;;1.38;0.70;;;19.40;57.30;;;;;;5134332;27;20023;-60
2021/10/02 04:29:47;;;;;;;1.20;0.70;;;19.40;57.30;;;;;;5134544;27;20094;-60
2021/10/02 04:32:12;;;;;;;2.38;0.88;;;19.40;57.30;;;;;;5134156;27;20030;-60
2021/10/02 04:34:38;;;;;;;3.53;0.85;;;19.40;57.30;;;;;;5134166;27;20529;-59
2021/10/02 04:37:04;;;;;;;2.53;0.70;;;19.40;57.40;;;;;;5134335;27;20043;-60
2021/10/02 04:39:29;;;;;;;2.25;0.80;;;19.30;57.40;;;;;;5133982;27;20053;-59
2021/10/02 04:41:55;;;;;;;2.35;0.80;;;19.30;57.40;;;;;;5134072;27;20475;-60
2021/10/02 04:44:21;;;;;;;2.90;0.95;;;19.40;57.40;;;;;;5134342;27;20019;-60
2021/10/02 04:46:47;;;;;;;2.38;0.60;;;19.30;57.40;;;;;;5134153;27;20031;-60
2021/10/02 04:49:13;;;;;;;1.38;0.63;;;19.30;57.40;;;;;;5134256;27;20416;-60
2021/10/02 04:51:38;;;;;;;1.40;0.60;;;19.30;57.50;;;;;;5134278;27;20478;-59
2021/10/02 04:54:04;;;;;;;0.93;0.40;;;19.30;57.50;;;;;;5134112;27;20059;-60
2021/10/02 04:56:30;;;;;;;2.13;0.80;;;19.30;57.50;;;;;;5134194;27;20068;-59
2021/10/02 04:58:56;;;;;;;1.50;0.68;;;19.30;57.50;;;;;;5133939;27;20023;-59
2021/10/02 05:01:22;;;;;;;1.70;0.70;;;19.30;57.50;;;;;;5133900;28;20481;-60
2021/10/02 05:03:48;;;;;;;2.20;0.70;;;19.30;57.60;;;;;;5134160;28;20526;-60
2021/10/02 05:06:13;;;;;;;1.27;0.68;;;19.30;57.60;;;;;;5133731;28;20038;-59
2021/10/02 05:08:39;;;;;;;2.92;0.88;;;19.30;57.60;;;;;;5133776;28;20016;-60
2021/10/02 05:11:06;;;;;;;1.88;0.73;;;19.30;57.70;;;;;;5134074;28;20023;-60
2021/10/02 05:13:34;;;;;;;2.03;0.77;;;19.30;57.70;;;;;;5133796;28;20033;-61
2021/10/02 05:16:00;;;;;;;1.77;0.57;;;19.30;57.60;;;;;;5134003;28;20027;-60
2021/10/02 05:18:26;;;;;;;1.48;0.70;;;19.30;57.70;;;;;;5133748;28;20505;-60
2021/10/02 05:20:51;;;;;;;1.90;0.60;;;19.30;57.60;;;;;;5136812;27;20050;-60
2021/10/02 05:23:17;;;;;;;3.10;0.90;;;19.20;57.70;;;;;;5137963;27;20612;-59
2021/10/02 05:25:43;;;;;;;1.90;0.85;;;19.30;57.70;;;;;;5138073;27;20035;-59
2021/10/02 05:28:08;;;;;;;1.73;0.73;;;19.30;57.70;;;;;;5137847;27;20381;-59
2021/10/02 05:30:34;;;;;;;1.35;0.60;;;19.30;57.70;;;;;;5137985;27;20032;-59
2021/10/02 05:33:01;;;;;;;1.40;0.68;;;19.20;57.70;;;;;;5137794;27;20027;-60
2021/10/02 05:35:27;;;;;;;1.73;0.73;;;19.30;57.80;;;;;;5137718;27;20037;-60
2021/10/02 05:37:52;;;;;;;1.90;0.70;;;19.20;57.80;;;;;;5137668;27;20529;-59
2021/10/02 05:40:18;;;;;;;0.73;0.40;;;19.20;57.80;;;;;;5137411;27;20080;-60
2021/10/02 05:42:43;;;;;;;2.53;0.82;;;19.20;57.80;;;;;;5137548;27;20063;-60
2021/10/02 05:45:09;;;;;;;1.58;0.75;;;19.20;57.80;;;;;;5137312;27;20029;-59
2021/10/02 05:47:34;;;;;;;1.92;0.70;;;19.20;57.80;;;;;;5137436;27;20030;-59
2021/10/02 05:50:00;;;;;;;1.75;0.77;;;19.20;57.80;;;;;;5137683;27;20458;-59
2021/10/02 05:52:26;;;;;;;1.48;0.70;;;19.20;57.80;;;;;;5137494;27;20167;-59
2021/10/02 05:54:52;;;;;;;2.05;0.68;;;19.20;57.80;;;;;;5137556;27;20019;-59
2021/10/02 05:57:18;;;;;;;1.42;0.75;;;19.20;57.90;;;;;;5137319;27;20110;-60
2021/10/02 05:59:46;;;;;;;1.23;0.50;;;19.20;57.90;;;;;;5137437;27;20016;-60
2021/10/02 06:02:12;;;;;;;1.90;1.02;;;19.20;57.90;;;;;;5137285;27;20106;-60
2021/10/02 06:04:37;;;;;;;2.97;0.75;;;19.20;57.90;;;;;;5137267;27;20047;-60
2021/10/02 06:07:03;;;;;;;1.55;0.55;;;19.20;57.90;;;;;;5137188;27;20062;-61
2021/10/02 06:09:28;;;;;;;1.77;0.70;;;19.20;58.00;;;;;;5137032;27;20080;-60
2021/10/02 06:11:54;;;;;;;2.17;0.70;;;19.20;58.00;;;;;;5136995;27;20068;-60
2021/10/02 06:14:20;;;;;;;1.60;0.60;;;19.20;58.00;;;;;;5136970;27;20027;-61
2021/10/02 06:16:45;;;;;;;1.83;0.60;;;19.20;58.00;;;;;;5136770;27;20470;-60
2021/10/02 06:19:11;;;;;;;0.85;0.40;;;19.20;58.00;;;;;;5136761;27;20023;-60
2021/10/02 06:21:36;;;;;;;0.75;0.50;;;19.20;58.00;;;;;;5136738;27;20023;-60
2021/10/02 06:24:03;;;;;;;1.63;0.63;;;19.20;58.00;;;;;;5136764;27;20024;-60
2021/10/02 06:26:32;;;;;;;1.23;0.50;;;19.20;58.10;;;;;;5136613;27;20066;-59
2021/10/02 06:28:58;;;;;;;1.33;0.63;;;19.20;58.10;;;;;;5136861;27;20041;-59
2021/10/02 06:31:24;;;;;;;1.48;0.50;;;19.20;58.10;;;;;;5135697;27;20031;-59
2021/10/02 06:33:50;;;;;;;2.15;0.80;;;19.20;58.10;;;;;;5136502;27;20016;-60
2021/10/02 06:36:16;;;;;;;2.10;0.80;;;19.20;58.10;;;;;;5136449;27;20031;-60
2021/10/02 06:38:42;;;;;;;2.95;0.80;;;19.20;58.10;;;;;;5136163;27;20035;-60
2021/10/02 06:41:08;;;;;;;1.90;0.65;;;19.20;58.10;;;;;;5136342;27;20026;-61
2021/10/02 06:43:33;;;;;;;1.52;0.52;;;19.20;58.10;;;;;;5136538;27;20130;-59
2021/10/02 06:45:59;;;;;;;1.65;0.75;;;19.20;58.10;;;;;;5136425;27;20031;-60
2021/10/02 06:48:25;;;;;;;1.92;0.68;;;19.20;58.10;;;;;;5136032;27;20034;-60
2021/10/02 06:50:51;;;;;;;3.03;0.80;;;19.20;58.10;;;;;;5136440;27;20046;-60
2021/10/02 06:53:16;;;;;;;1.77;0.70;;;19.20;58.10;;;;;;5136273;27;20482;-59
2021/10/02 06:55:42;;;;;;;1.40;0.68;;;19.20;58.10;;;;;;5136258;27;20056;-59
2021/10/02 06:58:08;;;;;;;1.20;0.60;;;19.20;58.20;;;;;;5135890;27;20026;-61
2021/10/02 07:00:35;;;;;;;2.13;0.60;;;19.20;58.20;;;;;;5136137;27;20023;-59
2021/10/02 07:03:00;;;;;;;1.48;0.52;;;19.20;58.20;;;;;;5135990;27;20020;-60
2021/10/02 07:05:26;;;;;;;2.08;0.73;;;19.20;58.10;;;;;;5136226;27;20030;-59
2021/10/02 07:07:52;;;;;;;2.92;0.70;;;19.20;58.20;;;;;;5135802;27;20102;-59
2021/10/02 07:10:20;;;;;;;1.52;0.57;;;19.20;58.20;;;;;;5135991;27;20027;-59
2021/10/02 07:12:49;;;;;;;2.80;0.75;;;19.20;58.10;;;;;;5135729;27;20462;-59
2021/10/02 07:15:15;;;;;;;1.58;0.60;;;19.20;58.20;;;;;;5135629;27;20027;-60
2021/10/02 07:17:41;;;;;;;1.27;0.55;;;19.20;58.20;;;;;;5135902;27;20034;-59
2021/10/02 07:20:08;;;;;;;1.90;0.65;;;19.20;58.20;;;;;;5135713;27;20020;-60
2021/10/02 07:22:38;;;;;;;1.30;0.60;;;19.20;58.20;;;;;;5135476;27;20535;-60
2021/10/02 07:25:05;;;;;;;1.17;0.60;;;19.20;58.20;;;;;;5135261;27;20462;-59
2021/10/02 07:27:31;;;;;;;1.42;0.50;;;19.20;58.30;;;;;;5135777;27;20027;-60
2021/10/02 07:29:57;;;;;;;1.13;0.50;;;19.20;58.30;;;;;;5135551;27;20073;-59
2021/10/02 07:32:23;;;;;;;0.90;0.50;;;19.20;58.40;;;;;;5135318;27;20494;-60
2021/10/02 07:34:50;;;;;;;1.10;0.65;;;19.20;58.40;;;;;;5135186;27;20478;-59
2021/10/02 07:37:16;;;;;;;1.52;0.68;;;19.20;58.40;;;;;;5135471;27;20027;-59
2021/10/02 07:39:42;;;;;;;2.08;0.65;;;19.20;58.40;;;;;;5134936;27;20047;-59
2021/10/02 07:42:11;;;;;;;1.88;0.75;;;19.20;58.40;;;;;;5135016;27;20072;-60
2021/10/02 07:44:37;;;;;;;1.15;0.47;;;19.20;58.30;;;;;;5135177;27;20046;-59
2021/10/02 07:47:03;;;;;;;1.60;0.63;;;19.20;58.30;;;;;;5134984;27;20280;-60
2021/10/02 07:49:33;;;;;;;1.52;0.68;;;19.20;58.30;;;;;;5135099;27;20015;-59
2021/10/02 07:52:00;;;;;;;2.03;0.70;;;19.20;58.40;;;;;;5135236;27;20058;-60
2021/10/02 07:54:27;;;;;;;1.63;0.73;;;19.20;58.40;;;;;;5134888;27;20029;-59
2021/10/02 07:56:53;;;;;;;2.30;0.63;;;19.20;58.40;;;;;;5135252;27;20042;-60
2021/10/02 07:59:20;;;;;;;1.65;0.60;;;19.20;58.40;;;;;;5134801;27;20463;-59
2021/10/02 08:01:45;;;;;;;2.20;0.70;;;19.20;58.40;;;;;;5134787;27;20027;-59
2021/10/02 08:04:12;;;;;;;1.50;0.63;;;19.20;58.30;;;;;;5134824;27;20079;-59
2021/10/02 08:06:38;;;;;;;1.27;0.50;;;19.20;58.40;;;;;;5134531;27;20039;-60
2021/10/02 08:09:05;;;;;;;1.60;0.60;;;19.20;58.40;;;;;;5116137;27;20019;-59
2021/10/02 08:11:31;;;;;;;1.88;0.60;;;19.20;58.30;;;;;;5134447;27;20499;-59
2021/10/02 08:13:56;;;;;;;0.73;0.40;;;19.20;58.30;;;;;;5134441;27;20047;-60
2021/10/02 08:16:27;;;;;;;1.08;0.50;;;19.20;58.30;;;;;;5134451;27;20502;-59
2021/10/02 08:18:56;;;;;;;0.93;0.55;;;19.20;58.30;;;;;;5134533;27;20393;-60
2021/10/02 08:21:22;;;;;;;0.73;0.50;;;19.20;58.40;;;;;;5115877;27;20023;-60
2021/10/02 08:23:48;;;;;;;1.15;0.60;;;19.20;58.50;;;;;;5134560;27;20024;-60
2021/10/02 08:26:14;;;;;;;1.17;0.50;;;19.20;58.40;;;;;;5134255;27;20046;-60
2021/10/02 08:28:45;;;;;;;1.55;0.50;;;19.20;58.40;;;;;;5134326;27;20011;-59
2021/10/02 08:31:13;;;;;;;1.52;0.68;;;19.30;58.40;;;;;;5134329;27;20019;-59
2021/10/02 08:33:38;;;;;;;1.60;0.70;;;19.30;58.20;;;;;;5134232;27;20027;-60
2021/10/02 08:36:04;;;;;;;1.95;0.75;;;19.30;58.30;;;;;;5134100;27;20386;-59
2021/10/02 08:38:30;;;;;;;1.02;0.60;;;19.20;58.30;;;;;;5115535;27;20533;-59
2021/10/02 08:40:56;;;;;;;1.17;0.63;;;19.30;58.30;;;;;;5133972;27;20043;-59
2021/10/02 08:43:22;;;;;;;2.40;0.77;;;19.30;58.20;;;;;;5134255;27;20027;-60
2021/10/02 08:45:49;;;;;;;2.38;0.60;;;19.30;58.10;;;;;;5115588;28;20049;-60
2021/10/02 08:48:16;;;;;;;1.00;0.50;;;19.30;58.00;;;;;;5134019;27;20027;-60
2021/10/02 08:50:43;;;;;;;1.58;0.50;;;19.40;57.90;;;;;;5133967;27;20098;-59
2021/10/02 08:53:10;;;;;;;1.50;0.75;;;19.40;58.00;;;;;;5133755;27;20076;-60
2021/10/02 08:55:36;;;;;;;0.70;0.40;;;19.40;57.90;;;;;;5133595;27;20040;-59
2021/10/02 08:58:03;;;;;;;1.10;0.63;;;19.40;57.90;;;;;;5133670;27;20023;-59
2021/10/02 09:00:29;;;;;;;1.13;0.43;;;19.40;58.00;;;;;;5134042;27;20113;-59
2021/10/02 09:02:55;;;;;;;2.80;0.40;;;19.40;57.90;;;;;;5133834;28;20413;-60
2021/10/02 09:05:22;;;;;;;1.08;0.52;;;19.40;57.90;;;;;;5133539;28;20488;-59
2021/10/02 09:07:50;;;;;;;1.05;0.50;;;19.40;57.90;;;;;;5133705;28;20019;-60
2021/10/02 09:10:18;;;;;;;0.98;0.70;;;19.40;57.90;;;;;;5133876;28;20034;-60
2021/10/02 09:12:44;;;;;;;2.20;0.90;;;19.40;57.90;;;;;;5133982;28;20038;-60
2021/10/02 09:15:11;;;;;;;1.30;0.60;;;19.40;57.80;;;;;;5134048;28;20043;-60
2021/10/02 09:17:37;;;;;;;1.17;0.60;;;19.50;57.80;;;;;;5133690;28;20023;-60
2021/10/02 09:20:04;;;;;;;1.00;0.52;;;19.40;57.80;;;;;;5133712;28;20026;-60
2021/10/02 09:22:29;;;;;;;2.15;0.60;;;19.50;57.80;;;;;;5133564;28;20057;-60
2021/10/02 09:24:58;;;;;;;1.23;0.55;;;19.50;57.80;;;;;;5133541;28;20029;-59
2021/10/02 09:27:26;;;;;;;1.23;0.50;;;19.50;57.80;;;;;;5133487;28;20028;-60
2021/10/02 09:30:07;;;;;;;1.60;0.70;;;19.40;57.80;;;;;;5133623;28;20027;-59
2021/10/02 09:32:38;;;;;;;1.77;0.65;;;19.50;57.90;;;;;;5133891;28;20133;-59
2021/10/02 09:35:11;;;;;;;0.85;0.40;;;19.50;57.90;;;;;;5133697;28;20027;-59
2021/10/02 09:37:40;;;;;;;0.85;0.40;;;19.50;57.90;;;;;;5133664;28;20027;-59
2021/10/02 09:40:18;;;;;;;1.25;0.60;;;19.50;57.90;;;;;;5133362;28;20035;-59
2021/10/02 09:42:47;;;;;;;0.73;0.40;;;19.40;57.90;;;;;;5133729;28;20428;-59
2021/10/02 09:45:18;;;;;;;1.13;0.50;;;19.50;57.90;;;;;;5133388;28;20091;-58
2021/10/02 09:47:47;;;;;;;0.68;0.47;;;19.50;57.90;;;;;;5133517;28;20451;-60
2021/10/02 09:50:16;;;;;;;1.35;0.65;;;19.50;57.80;;;;;;5133330;28;20026;-59
2021/10/02 09:52:44;;;;;;;1.65;0.80;;;19.50;57.80;;;;;;5133379;28;20545;-61
2021/10/02 09:55:30;;;;;;;1.13;0.50;;;19.50;57.90;;;;;;5114714;28;20114;-60
2021/10/02 09:58:08;;;;;;;2.20;0.68;;;19.50;57.90;;;;;;5133281;28;20486;-59
2021/10/02 10:00:39;;;;;;;1.15;0.50;;;19.50;57.80;;;;;;5133411;28;20031;-59
2021/10/02 10:03:10;;;;;;;1.25;0.50;;;19.50;57.80;;;;;;5133242;28;20023;-60
2021/10/02 10:05:38;;;;;;;0.98;0.52;;;19.50;57.80;;;;;;5133640;27;20031;-59
2021/10/02 10:08:06;;;;;;;1.58;0.63;;;19.50;57.90;;;;;;5137083;27;20439;-60
2021/10/02 10:10:37;;;;;;;1.50;0.60;;;19.50;57.90;;;;;;5136996;27;20102;-59
2021/10/02 10:13:15;;;;;;;1.88;0.57;;;19.50;57.90;;;;;;5136958;27;20490;-60
2021/10/02 10:15:46;;;;;;;0.82;0.50;;;19.50;57.90;;;;;;5136796;27;20424;-60
2021/10/02 10:18:14;;;;;;;1.52;0.68;;;19.50;57.90;;;;;;5136802;27;20572;-59
2021/10/02 10:20:52;;;;;;;0.90;0.50;;;19.50;57.80;;;;;;5136951;27;20420;-60
2021/10/02 10:23:38;;;;;;;2.10;0.60;;;19.50;57.80;;;;;;5136892;27;20023;-60
2021/10/02 10:26:06;;;;;;;1.45;0.63;;;19.50;57.90;;;;;;5136721;27;20076;-59
2021/10/02 10:28:34;;;;;;;0.80;0.40;;;19.50;57.90;;;;;;5136597;27;20159;-60
2021/10/02 10:31:18;;;;;;;1.50;0.50;;;19.50;58.00;;;;;;5136776;27;20027;-60
2021/10/02 10:33:47;;;;;;;1.33;0.60;;;19.50;57.90;;;;;;5136649;27;20058;-59
2021/10/02 10:36:15;;;;;;;2.78;0.63;;;19.50;57.90;;;;;;5136498;27;20027;-60
2021/10/02 10:38:43;;;;;;;0.98;0.45;;;19.50;57.90;;;;;;5136299;27;20062;-59
2021/10/02 10:41:11;;;;;;;1.17;0.50;;;19.50;57.90;;;;;;5136292;27;20027;-59
2021/10/02 10:43:36;;;;;;;1.00;0.40;;;19.50;57.90;;;;;;5136403;27;20028;-60
2021/10/02 10:46:07;;;;;;;0.85;0.60;;;19.50;57.90;;;;;;5135981;27;20033;-60
2021/10/02 10:48:34;;;;;;;0.60;0.38;;;19.50;57.90;;;;;;5135997;27;20035;-60
2021/10/02 10:51:08;;;;;;;2.42;0.70;;;19.50;58.00;;;;;;5135991;27;20049;-60
2021/10/02 10:53:38;;;;;;;0.80;0.40;;;19.50;58.00;;;;;;5136266;27;20027;-60
2021/10/02 10:56:05;;;;;;;3.58;0.60;;;19.50;58.00;;;;;;5136175;27;20027;-59
2021/10/02 10:58:31;;;;;;;1.75;0.55;;;19.60;57.90;;;;;;5136006;27;20464;-60
2021/10/02 11:01:00;;;;;;;1.15;0.30;;;19.50;57.90;;;;;;5135979;27;20027;-60
2021/10/02 11:03:37;;;;;;;1.23;0.50;;;19.50;58.00;;;;;;5135931;27;20477;-60
2021/10/02 11:06:05;;;;;;;0.73;0.50;;;19.50;58.00;;;;;;5136041;27;20031;-60
2021/10/02 11:08:49;;;;;;;1.00;0.40;;;19.50;58.00;;;;;;5135854;27;20439;-59
2021/10/02 11:11:15;;;;;;;1.02;0.50;;;19.50;58.00;;;;;;5135935;27;20030;-60
2021/10/02 11:13:46;;;;;;;1.02;0.50;;;19.50;58.00;;;;;;5135686;27;20027;-59
2021/10/02 11:16:36;;;;;;;1.55;0.70;;;19.50;58.00;;;;;;5135693;27;20023;-59
2021/10/02 11:19:22;;;;;;;1.08;0.70;;;19.50;58.00;;;;;;5135185;27;20478;-59
2021/10/02 11:22:39;;;;;;;1.73;0.80;;;19.50;58.00;;;;;;5135400;27;20027;-59
2021/10/02 11:25:17;;;;;;;0.98;0.40;;;19.50;58.10;;;;;;5135422;27;20098;-59
2021/10/02 11:27:42;;;;;;;0.77;0.50;;;19.50;58.10;;;;;;5135498;27;20097;-59
2021/10/02 11:30:14;;;;;;;1.98;0.70;;;19.50;58.10;;;;;;5116935;27;20028;-59
2021/10/02 11:32:41;;;;;;;1.15;0.60;;;19.50;58.10;;;;;;5135285;27;20058;-59
2021/10/02 11:35:31;;;;;;;1.25;0.60;;;19.50;58.10;;;;;;5135202;27;20023;-59
2021/10/02 11:38:01;;;;;;;1.40;0.50;;;19.50;58.00;;;;;;5135039;27;20546;-59
2021/10/02 11:40:33;;;;;;;0.82;0.40;;;19.50;58.00;;;;;;5116718;27;20047;-59
2021/10/02 11:43:17;;;;;;;1.70;0.65;;;19.50;58.00;;;;;;5135244;27;20025;-59
2021/10/02 11:45:45;;;;;;;1.50;0.68;;;19.50;58.00;;;;;;5135201;27;20023;-59
2021/10/02 11:48:17;;;;;;;0.60;0.35;;;19.50;58.10;;;;;;5135205;27;20027;-60
2021/10/02 11:51:07;;;;;;;0.65;0.40;;;19.50;58.00;;;;;;5135168;27;20023;-59
2021/10/02 11:53:51;;;;;;;0.88;0.40;;;19.50;58.10;;;;;;5120950;27;20031;-59
2021/10/02 11:56:21;;;;;;;0.80;0.50;;;19.50;58.10;;;;;;5134845;27;20416;-59
2021/10/02 11:58:51;;;;;;;0.82;0.50;;;19.50;58.00;;;;;;5134857;27;20030;-59
2021/10/02 12:01:20;;;;;;;0.40;0.38;;;19.50;58.10;;;;;;5134482;27;20080;-59
2021/10/02 12:03:46;;;;;;;1.38;0.50;;;19.50;58.10;;;;;;5134822;27;20034;-59
2021/10/02 12:06:12;;;;;;;0.82;0.57;;;19.50;58.10;;;;;;5134548;27;20039;-59
2021/10/02 12:08:39;;;;;;;1.80;0.50;;;19.60;58.00;;;;;;5134562;27;20070;-59
2021/10/02 12:11:07;;;;;;;1.92;0.70;;;19.60;58.10;;;;;;5134473;27;20526;-60
2021/10/02 12:13:33;;;;;;;1.80;0.60;;;19.50;58.00;;;;;;5134572;27;20027;-58
2021/10/02 12:16:07;;;;;;;2.78;0.73;;;19.60;58.00;;;;;;5134503;27;20023;-60
2021/10/02 12:18:49;;;;;;;1.00;0.55;;;19.60;58.10;;;;;;5134605;27;20050;-60
2021/10/02 12:21:23;;;;;;;0.80;0.40;;;19.60;58.10;;;;;;5134694;27;20031;-61
2021/10/02 12:23:52;;;;;;;;;;;19.60;58.10;;;;;;5134602;27;20023;-59
2021/10/02 12:26:17;;;;;;;1.00;0.60;;;19.60;58.00;;;;;;5134178;27;20341;-59
2021/10/02 12:28:43;;;;;;;1.30;0.60;;;19.60;58.00;;;;;;5133930;27;20104;-60
2021/10/02 12:31:09;;;;;;;1.23;0.50;;;19.60;58.00;;;;;;5133748;27;20029;-61
2021/10/02 12:33:34;;;;;;;0.70;0.40;;;19.60;58.00;;;;;;5134119;27;20050;-60
2021/10/02 12:36:00;;;;;;;1.45;0.50;;;19.60;58.00;;;;;;5134350;27;20051;-60
2021/10/02 12:38:39;;;;;;;0.88;0.47;;;19.60;58.00;;;;;;5133925;27;20031;-61
2021/10/02 12:41:04;;;;;;;1.27;0.50;;;19.60;58.00;;;;;;5134267;27;20035;-61
2021/10/02 12:43:33;;;;;;;0.90;0.47;;;19.60;58.00;;;;;;5134311;27;20034;-60
2021/10/02 12:46:00;;;;;;;1.50;0.50;;;19.60;58.00;;;;;;5134004;27;20470;-60
2021/10/02 12:48:26;;;;;;;0.95;0.57;;;19.70;57.90;;;;;;5133866;27;20351;-60
2021/10/02 12:50:52;;;;;;;1.95;0.70;;;19.60;57.90;;;;;;5133922;27;20526;-61
2021/10/02 12:53:21;;;;;;;1.13;0.50;;;19.60;58.10;;;;;;5134328;27;20046;-60
2021/10/02 12:55:46;;;;;;;0.63;0.30;;;19.60;58.00;;;;;;5133939;27;20023;-60
2021/10/02 12:58:21;;;;;;;0.90;0.50;;;19.60;58.00;;;;;;5134197;27;20092;-59
2021/10/02 13:00:54;;;;;;;1.52;0.70;;;19.60;58.00;;;;;;5134150;27;20055;-60
2021/10/02 13:03:19;;;;;;;1.70;0.57;;;19.70;58.10;;;;;;5134035;27;20382;-60
2021/10/02 13:05:45;;;;;;;1.52;0.60;;;19.60;58.00;;;;;;5133877;28;20032;-59
2021/10/02 13:08:14;;;;;;;0.80;0.40;;;19.60;58.10;;;;;;5133995;28;20106;-60
2021/10/02 13:10:40;;;;;;;1.02;0.50;;;19.60;58.10;;;;;;5133854;28;20061;-61
2021/10/02 13:13:11;;;;;;;1.40;0.60;;;19.70;58.00;;;;;;5133753;28;20033;-60
2021/10/02 13:15:48;;;;;;;0.50;0.40;;;19.70;58.00;;;;;;5134134;28;20054;-60
2021/10/02 13:18:18;;;;;;;1.40;0.60;;;19.70;58.10;;;;;;5133856;28;20034;-60
2021/10/02 13:20:46;;;;;;;1.48;0.50;;;19.70;58.10;;;;;;5133625;28;20102;-60
2021/10/02 13:23:19;;;;;;;1.25;0.50;;;19.70;58.10;;;;;;5133654;28;20034;-59
2021/10/02 13:25:54;;;;;;;1.05;0.40;;;19.70;58.00;;;;;;5133464;28;20455;-60
2021/10/02 13:28:39;;;;;;;0.90;0.47;;;19.70;58.10;;;;;;5133455;28;20026;-60
2021/10/02 13:31:07;;;;;;;0.70;0.30;;;19.70;58.00;;;;;;5133572;28;20120;-60
2021/10/02 13:33:38;;;;;;;0.68;0.47;;;19.70;58.00;;;;;;5133498;28;20039;-60
2021/10/02 13:36:04;;;;;;;1.92;0.50;;;19.70;58.00;;;;;;5133376;28;20036;-60
2021/10/02 13:38:35;;;;;;;2.63;0.90;;;19.70;58.00;;;;;;5133195;28;20035;-60
2021/10/02 13:41:04;;;;;;;1.73;0.80;;;19.70;58.00;;;;;;5135040;27;20061;-60
2021/10/02 13:43:30;;;;;;;1.58;0.43;;;19.70;58.10;;;;;;5137457;27;20019;-61
2021/10/02 13:45:56;;;;;;;1.30;0.80;;;19.70;58.10;;;;;;5137426;27;20087;-59
2021/10/02 13:48:30;;;;;;;1.33;0.70;;;19.70;58.10;;;;;;5137686;27;20035;-60
2021/10/02 13:50:57;;;;;;;;;;;19.70;58.10;;;;;;5137879;27;20028;-59
2021/10/02 13:53:23;;;;;;;1.30;0.60;;;19.70;58.00;;;;;;5118876;27;19990;-60